createdAt,value
2023-03-06T00:00:32.112Z,4.98
2023-03-06T00:03:00.036Z,4.96
2023-03-06T00:05:28.147Z,4.86
2023-03-06T00:07:56.101Z,4.80
2023-03-06T00:10:25.167Z,4.78
2023-03-06T00:12:54.599Z,4.72
2023-03-06T00:15:22.508Z,4.76
2023-03-06T00:17:50.803Z,4.83
2023-03-06T00:20:19.030Z,4.90
2023-03-06T00:22:47.117Z,4.86
2023-03-06T00:25:16.725Z,4.90
2023-03-06T00:27:44.719Z,4.92
2023-03-06T00:30:15.391Z,4.96
2023-03-06T00:32:43.490Z,4.89
2023-03-06T00:35:11.540Z,5.06
2023-03-06T00:37:39.613Z,4.93
2023-03-06T00:40:08.456Z,4.91
2023-03-06T00:42:36.396Z,4.99
2023-03-06T00:45:04.716Z,4.94
2023-03-06T00:47:34.150Z,4.96
2023-03-06T00:50:02.111Z,4.92
2023-03-06T00:52:30.044Z,4.82
2023-03-06T00:54:58.000Z,4.79
2023-03-06T00:57:26.004Z,4.77
2023-03-06T00:59:53.959Z,4.71
2023-03-06T01:02:21.979Z,4.79
2023-03-06T01:04:51.311Z,4.75
2023-03-06T01:07:19.226Z,4.75
2023-03-06T01:09:47.155Z,4.77
2023-03-06T01:12:15.109Z,4.70
2023-03-06T01:14:43.060Z,4.70
2023-03-06T01:17:10.998Z,4.63
2023-03-06T01:19:38.932Z,4.62
2023-03-06T01:22:08.236Z,4.67
2023-03-06T01:24:36.148Z,4.62
2023-03-06T01:27:04.171Z,4.59
2023-03-06T01:29:32.125Z,4.53
2023-03-06T01:32:00.156Z,4.47
2023-03-06T01:34:28.169Z,4.41
2023-03-06T01:36:56.121Z,4.40
2023-03-06T01:39:25.437Z,4.37
2023-03-06T01:41:53.417Z,4.46
2023-03-06T01:44:21.347Z,4.34
2023-03-06T01:46:49.495Z,4.26
2023-03-06T01:49:19.830Z,4.26
2023-03-06T01:51:50.815Z,4.18
2023-03-06T01:54:20.688Z,4.09
2023-03-06T01:56:51.338Z,4.06
2023-03-06T01:59:19.512Z,4.05
2023-03-06T02:01:47.420Z,4.07
2023-03-06T02:04:15.503Z,4.06
2023-03-06T02:06:44.296Z,4.09
2023-03-06T02:09:13.250Z,3.85
2023-03-06T02:11:44.050Z,4.11
2023-03-06T02:14:14.562Z,4.16
2023-03-06T02:16:42.550Z,4.10
2023-03-06T02:19:16.270Z,4.06
2023-03-06T02:21:44.209Z,4.04
2023-03-06T02:24:22.295Z,3.99
2023-03-06T02:26:51.641Z,3.92
2023-03-06T02:29:22.277Z,3.90
2023-03-06T02:31:50.400Z,3.92
2023-03-06T02:34:53.370Z,3.84
2023-03-06T02:37:21.628Z,3.78
2023-03-06T02:39:51.218Z,3.72
2023-03-06T02:42:21.670Z,3.72
2023-03-06T02:44:49.851Z,3.67
2023-03-06T02:47:17.760Z,3.65
2023-03-06T02:49:45.722Z,3.67
2023-03-06T02:52:13.682Z,3.68
2023-03-06T02:54:42.627Z,3.62
2023-03-06T02:57:10.560Z,3.52
2023-03-06T02:59:39.898Z,3.39
2023-03-06T03:02:07.874Z,3.45
2023-03-06T03:04:35.952Z,3.39
2023-03-06T03:07:03.923Z,3.36
2023-03-06T03:09:36.886Z,3.35
2023-03-06T03:12:06.278Z,3.29
2023-03-06T03:14:34.278Z,3.32
2023-03-06T03:17:03.607Z,3.31
2023-03-06T03:19:31.577Z,3.28
2023-03-06T03:21:59.495Z,3.20
2023-03-06T03:24:27.538Z,3.21
2023-03-06T03:26:55.506Z,3.13
2023-03-06T03:29:23.474Z,3.15
2023-03-06T03:31:51.504Z,3.14
2023-03-06T03:34:20.861Z,3.14
2023-03-06T03:36:48.816Z,3.07
2023-03-06T03:39:16.817Z,3.10
2023-03-06T03:41:44.749Z,3.11
2023-03-06T03:44:12.694Z,3.10
2023-03-06T03:46:40.688Z,3.12
2023-03-06T03:49:08.683Z,3.14
2023-03-06T03:51:38.040Z,3.09
2023-03-06T03:54:06.306Z,3.09
2023-03-06T03:56:34.656Z,3.06
2023-03-06T03:59:02.561Z,3.05
2023-03-06T04:01:30.558Z,3.22
2023-03-06T04:03:58.509Z,3.15
2023-03-06T04:06:26.503Z,3.18
2023-03-06T04:08:55.826Z,3.17
2023-03-06T04:11:23.772Z,3.24
2023-03-06T04:13:51.735Z,3.26
2023-03-06T04:16:19.745Z,3.23
2023-03-06T04:18:47.739Z,3.18
2023-03-06T04:21:15.704Z,3.19
2023-03-06T04:23:43.699Z,3.19
2023-03-06T04:26:13.116Z,3.13
2023-03-06T04:28:41.045Z,3.14
2023-03-06T04:31:09.010Z,3.10
2023-03-06T04:33:36.993Z,3.17
2023-03-06T04:36:05.551Z,3.13
2023-03-06T04:38:33.526Z,3.11
2023-03-06T04:41:01.495Z,3.03
2023-03-06T04:43:30.833Z,3.04
2023-03-06T04:45:59.472Z,2.99
2023-03-06T04:48:27.451Z,3.05
2023-03-06T04:50:55.418Z,2.97
2023-03-06T04:53:23.375Z,3.01
2023-03-06T04:55:51.346Z,3.03
2023-03-06T04:58:19.298Z,3.12
2023-03-06T05:00:48.679Z,3.14
2023-03-06T05:03:16.711Z,3.29
2023-03-06T05:05:44.680Z,3.30
2023-03-06T05:08:13.259Z,3.46
2023-03-06T05:10:41.226Z,3.51
2023-03-06T05:13:09.147Z,3.68
2023-03-06T05:15:37.136Z,3.79
2023-03-06T05:18:06.616Z,3.88
2023-03-06T05:20:34.566Z,4.12
2023-03-06T05:23:02.548Z,4.70
2023-03-06T05:25:30.513Z,5.26
2023-03-06T05:27:58.487Z,5.38
2023-03-06T05:30:26.438Z,5.45
2023-03-06T05:32:54.468Z,5.73
2023-03-06T05:35:24.135Z,6.08
2023-03-06T05:37:52.118Z,6.48
2023-03-06T05:40:20.402Z,6.72
2023-03-06T05:42:48.362Z,6.86
2023-03-06T05:45:16.375Z,7.01
2023-03-06T05:47:44.344Z,7.06
2023-03-06T05:50:14.060Z,7.00
2023-03-06T05:52:43.389Z,7.22
2023-03-06T05:55:12.885Z,7.30
2023-03-06T05:57:40.870Z,7.33
2023-03-06T06:00:09.999Z,7.32
2023-03-06T06:02:38.021Z,7.68
2023-03-06T06:05:06.559Z,7.95
2023-03-06T06:07:34.554Z,8.01
2023-03-06T06:10:04.102Z,8.22
2023-03-06T06:12:32.062Z,8.15
2023-03-06T06:15:00.033Z,8.22
2023-03-06T06:17:28.023Z,8.13
2023-03-06T06:19:56.129Z,8.28
2023-03-06T06:22:24.261Z,8.45
2023-03-06T06:24:52.227Z,8.62
2023-03-06T06:27:21.549Z,8.84
2023-03-06T06:29:51.757Z,8.79
2023-03-06T06:32:19.848Z,8.98
2023-03-06T06:34:47.838Z,9.28
2023-03-06T06:37:15.800Z,9.33
2023-03-06T06:39:43.814Z,9.37
2023-03-06T06:42:29.393Z,8.94
2023-03-06T06:45:00.728Z,9.04
2023-03-06T06:47:28.740Z,9.18
2023-03-06T06:49:56.776Z,9.48
2023-03-06T06:52:24.972Z,9.55
2023-03-06T06:54:53.126Z,9.51
2023-03-06T06:57:21.081Z,9.68
2023-03-06T06:59:50.157Z,9.75
2023-03-06T07:02:21.145Z,10.23
2023-03-06T07:05:02.391Z,10.51
2023-03-06T07:07:31.339Z,10.35
2023-03-06T07:09:59.254Z,10.58
2023-03-06T07:12:27.240Z,10.54
2023-03-06T07:14:55.203Z,11.13
2023-03-06T07:17:24.506Z,11.27
2023-03-06T07:19:52.480Z,11.46
2023-03-06T07:22:20.436Z,11.52
2023-03-06T07:24:48.370Z,11.87
2023-03-06T07:27:16.382Z,12.13
2023-03-06T07:29:44.447Z,11.81
2023-03-06T07:32:12.529Z,11.70
2023-03-06T07:34:43.162Z,11.97
2023-03-06T07:37:11.102Z,11.36
2023-03-06T07:39:39.061Z,11.36
2023-03-06T07:42:07.898Z,11.36
2023-03-06T07:44:37.653Z,11.26
2023-03-06T07:47:05.726Z,11.11
2023-03-06T07:49:33.705Z,10.74
2023-03-06T07:52:03.382Z,10.96
2023-03-06T07:54:32.718Z,11.08
2023-03-06T07:57:00.691Z,11.04
2023-03-06T07:59:28.787Z,11.19
2023-03-06T08:01:57.532Z,11.04
2023-03-06T08:04:25.492Z,11.36
2023-03-06T08:06:57.544Z,11.44
2023-03-06T08:09:26.868Z,11.54
2023-03-06T08:11:54.803Z,11.80
2023-03-06T08:14:22.855Z,11.97
2023-03-06T08:16:51.333Z,11.98
2023-03-06T08:19:19.297Z,12.12
2023-03-06T08:21:47.285Z,12.17
2023-03-06T08:24:16.767Z,11.97
2023-03-06T08:26:46.364Z,12.23
2023-03-06T08:29:15.431Z,12.58
2023-03-06T08:31:43.863Z,12.79
2023-03-06T08:34:13.362Z,12.75
2023-03-06T08:36:41.328Z,12.86
2023-03-06T08:39:09.366Z,12.49
2023-03-06T08:41:37.480Z,12.75
2023-03-06T08:44:06.865Z,12.76
2023-03-06T08:46:34.943Z,12.99
2023-03-06T08:49:02.900Z,13.32
2023-03-06T08:51:30.866Z,12.92
2023-03-06T08:53:58.836Z,12.53
2023-03-06T08:56:27.697Z,12.46
2023-03-06T08:58:55.836Z,12.70
2023-03-06T09:01:26.158Z,12.96
2023-03-06T09:03:54.908Z,13.39
2023-03-06T09:06:23.076Z,13.31
2023-03-06T09:08:52.022Z,13.34
2023-03-06T09:11:20.798Z,13.21
2023-03-06T09:13:48.730Z,13.56
2023-03-06T09:16:16.739Z,13.90
2023-03-06T09:18:46.092Z,14.29
2023-03-06T09:21:14.051Z,14.40
2023-03-06T09:23:41.972Z,14.67
2023-03-06T09:26:09.926Z,14.97
2023-03-06T09:28:39.240Z,15.22
2023-03-06T09:31:09.557Z,14.92
2023-03-06T09:33:37.733Z,15.00
2023-03-06T09:36:07.982Z,14.98
2023-03-06T09:38:35.910Z,15.16
2023-03-06T09:43:36.657Z,16.01
2023-03-06T09:46:08.529Z,15.94
2023-03-06T09:48:40.778Z,15.88
2023-03-06T09:51:11.928Z,15.95
2023-03-06T09:53:47.315Z,15.89
2023-03-06T09:56:17.188Z,16.12
2023-03-06T09:58:46.367Z,16.47
2023-03-06T10:01:17.303Z,16.93
2023-03-06T10:03:49.162Z,17.13
2023-03-06T10:06:20.697Z,18.22
2023-03-06T10:08:50.458Z,18.52
2023-03-06T10:11:21.090Z,18.44
2023-03-06T10:13:49.756Z,17.39
2023-03-06T10:16:27.247Z,16.47
2023-03-06T10:18:55.428Z,16.16
2023-03-06T10:21:45.700Z,16.47
2023-03-06T10:24:21.628Z,16.03
2023-03-06T10:26:51.332Z,16.03
2023-03-06T10:29:28.671Z,16.09
2023-03-06T10:32:00.608Z,16.70
2023-03-06T10:34:30.448Z,17.29
2023-03-06T10:37:00.213Z,18.03
2023-03-06T10:39:28.908Z,17.83
2023-03-06T10:41:58.226Z,17.87
2023-03-06T10:44:26.162Z,17.84
2023-03-06T10:46:54.622Z,18.02
2023-03-06T10:49:28.497Z,18.12
2023-03-06T10:51:57.507Z,18.71
2023-03-06T10:54:27.031Z,18.36
2023-03-06T10:56:55.003Z,17.98
2023-03-06T10:59:25.393Z,17.75
2023-03-06T11:01:54.356Z,17.56
2023-03-06T11:04:27.215Z,18.00
2023-03-06T11:07:15.632Z,18.30
2023-03-06T11:09:47.725Z,18.28
2023-03-06T11:12:22.604Z,18.46
2023-03-06T11:15:22.193Z,19.68
2023-03-06T11:17:54.879Z,20.19
2023-03-06T11:20:23.954Z,20.08
2023-03-06T11:22:54.786Z,19.90
2023-03-06T11:25:27.528Z,20.55
2023-03-06T11:27:57.985Z,21.23
2023-03-06T11:30:27.578Z,21.32
2023-03-06T11:32:57.784Z,22.03
2023-03-06T11:35:26.435Z,22.25
2023-03-06T11:37:55.333Z,21.90
2023-03-06T11:40:26.181Z,21.46
2023-03-06T11:42:57.249Z,21.51
2023-03-06T11:45:28.835Z,22.06
2023-03-06T11:48:01.808Z,23.14
2023-03-06T11:50:32.571Z,23.33
2023-03-06T12:36:18.802Z,19.67
2023-03-06T15:49:03.249Z,10.03
2023-03-06T15:51:31.424Z,9.97
2023-03-06T15:54:11.208Z,10.02
2023-03-06T15:56:40.938Z,10.14
2023-03-06T15:59:09.959Z,10.27
2023-03-06T16:01:37.988Z,10.31
2023-03-06T16:04:07.466Z,10.24
2023-03-06T16:06:35.466Z,10.24
2023-03-06T16:09:03.421Z,10.21
